Liberty — WDD2088 — position and weather

sailwx.info

Track history (hours):
 
Tides and Currents Weather Stations Pressure Air Temp Water Temp Dewpoint Dewpoint Depression Visibility Wind Speed Wind Dir Waves Ship Positions

Liberty

Owner: HORIZON 82 LEASING LLC, Provo, UT. More information available from US FCC via Universal Licensing System.

Last reported at 2014-Sep-12 23:24 UTC. Time now 2014-Nov-22 17:54 UTC.
Position N 48°27' W 122°31'.
Warning: this ship's position is months out of date.

Length 25 m.

MMSI: 367110770.

Date/timePositionNaut miles runAvg speedWind from/ knotsBaromVisibWave heightAir tempDewpointWater temp
2014-Sep-12 23:24N 48°27' W 122°31'6 7.4
2014-Sep-12 22:33N 48°31' W 122°38'9 8.7
2014-Sep-12 21:33N 48°33' W 122°51'9 9.0
2014-Sep-12 20:33N 48°37' W 123°03'7 3.6
2014-Sep-12 18:33N 48°41' W 123°12'0 0.0
2014-Sep-12 14:30N 48°41' W 123°12'0 0.0
2014-Sep-12 12:09N 48°41' W 123°12'0 0.0
2014-Sep-12 11:24N 48°41' W 123°12'0 0.0
2014-Sep-12 09:30N 48°41' W 123°12'0 0.0
2014-Sep-12 07:09N 48°41' W 123°12'0 0.0
2014-Sep-12 05:12N 48°41' W 123°12'0 0.0
2014-Sep-12 01:15N 48°41' W 123°12'0 0.0
2014-Sep-12 00:09N 48°41' W 123°12'0 0.0
2014-Sep-11 22:27N 48°41' W 123°12'0 0.0
2014-Sep-11 20:12N 48°41' W 123°12'2 2.7
2014-Sep-11 19:33N 48°40' W 123°10'3 3.2
2014-Sep-11 18:32N 48°37' W 123°09'0 0.0
2014-Sep-11 17:32N 48°37' W 123°09'0 0.0
2014-Sep-11 16:32N 48°37' W 123°09'0 0.0
2014-Sep-11 15:32N 48°37' W 123°09'0 0.0
2014-Sep-11 14:32N 48°37' W 123°09'0 0.0
2014-Sep-11 13:32N 48°37' W 123°09'0 0.0
2014-Sep-11 12:05N 48°37' W 123°09'0 0.0
2014-Sep-11 11:20N 48°37' W 123°09'0 0.0
2014-Sep-11 10:14N 48°37' W 123°09'0 0.0
2014-Sep-11 09:20N 48°37' W 123°09'0 0.0
2014-Sep-11 08:29N 48°37' W 123°09'0 0.0
2014-Sep-11 07:29N 48°37' W 123°09'0 0.0
2014-Sep-11 06:26N 48°37' W 123°09'0 0.0
2014-Sep-11 05:20N 48°37' W 123°09'0 0.0
2014-Sep-11 04:21N 48°37' W 123°09'0 0.0
2014-Sep-11 03:08N 48°37' W 123°09'0 0.0
2014-Sep-11 02:26N 48°37' W 123°09'0 0.0
2014-Sep-11 01:32N 48°37' W 123°09'0 0.0
2014-Sep-11 00:32N 48°37' W 123°09'0 0.0
2014-Sep-10 23:32N 48°37' W 123°09'0 0.0
2014-Sep-10 22:26N 48°37' W 123°09'0 0.0
2014-Sep-10 20:20N 48°37' W 123°09'0 0.0
2014-Sep-10 19:29N 48°37' W 123°09'0 0.0
2014-Sep-10 18:32N 48°37' W 123°09'0 0.0
2014-Sep-10 17:32N 48°37' W 123°09'0 0.0
2014-Sep-10 16:29N 48°37' W 123°09'0 0.0
2014-Sep-10 15:32N 48°37' W 123°09'0 0.0
2014-Sep-10 14:32N 48°37' W 123°09'0 0.0
2014-Sep-10 13:32N 48°37' W 123°09'0 0.0
2014-Sep-10 12:32N 48°37' W 123°09'0 0.0
2014-Sep-10 11:32N 48°37' W 123°09'0 0.0
2014-Sep-10 10:32N 48°37' W 123°09'0 0.0
2014-Sep-10 09:32N 48°37' W 123°09'0 0.0
2014-Sep-10 08:32N 48°37' W 123°09'0 0.0
2014-Sep-10 07:32N 48°37' W 123°09'0 0.0
2014-Sep-10 06:32N 48°37' W 123°09'0 0.0
2014-Sep-10 05:32N 48°37' W 123°09'0 0.0
2014-Sep-10 04:32N 48°37' W 123°09'0 0.0
2014-Sep-10 03:32N 48°37' W 123°09'0 0.0
2014-Sep-10 02:32N 48°37' W 123°09'0 0.0
2014-Sep-10 01:32N 48°37' W 123°09'0 0.0
2014-Sep-10 00:29N 48°37' W 123°09'0 0.0
2014-Sep-09 23:32N 48°37' W 123°09'0 0.0
2014-Sep-09 22:32N 48°37' W 123°09'0 0.0
2014-Sep-09 21:32N 48°37' W 123°09'0 0.0
2014-Sep-09 20:32N 48°37' W 123°09'0 0.0
2014-Sep-09 19:29N 48°37' W 123°09'0 0.0
2014-Sep-09 18:32N 48°37' W 123°09'0 0.0
2014-Sep-09 17:32N 48°37' W 123°09'0 0.0
2014-Sep-09 16:32N 48°37' W 123°09'0 0.0
2014-Sep-09 15:32N 48°37' W 123°09'0 0.0
2014-Sep-09 14:32N 48°37' W 123°09'0 0.0
2014-Sep-09 13:32N 48°37' W 123°09'0 0.0
2014-Sep-09 12:32N 48°37' W 123°09'0 0.0
2014-Sep-09 11:32N 48°37' W 123°09'0 0.0
2014-Sep-09 10:32N 48°37' W 123°09'0 0.0
2014-Sep-09 09:32N 48°37' W 123°09'0 0.0
2014-Sep-09 08:32N 48°37' W 123°09'0 0.0
2014-Sep-09 07:32N 48°37' W 123°09'0 0.0
2014-Sep-09 06:32N 48°37' W 123°09'0 0.0
2014-Sep-09 05:32N 48°37' W 123°09'0 0.0
2014-Sep-09 04:32N 48°37' W 123°09'0 0.0
2014-Sep-09 03:32N 48°37' W 123°09'0 0.0
2014-Sep-09 02:32N 48°37' W 123°09'0 0.0
2014-Sep-09 01:32N 48°37' W 123°09'0 0.0
2014-Sep-09 00:32N 48°37' W 123°09'0 0.0
2014-Sep-08 23:32N 48°37' W 123°09'1 0.9
2014-Sep-08 22:33N 48°37' W 123°10'12 9.1
2014-Sep-08 21:14N 48°34' W 122°52'7 9.8
2014-Sep-08 20:33N 48°31' W 122°43'5 4.0
2014-Sep-08 19:23N 48°31' W 122°36'0 0.0
2014-Sep-08 18:29N 48°31' W 122°36'0 0.0
2014-Sep-08 17:29N 48°31' W 122°36'0 0.0
2014-Sep-08 16:29N 48°31' W 122°36'0 0.0
2014-Sep-08 15:17N 48°31' W 122°36'0 0.0
2014-Sep-08 14:29N 48°31' W 122°36'0 0.0
2014-Sep-08 13:17N 48°31' W 122°36'0 0.0
2014-Sep-08 12:29N 48°31' W 122°36'0 0.0
2014-Sep-08 11:29N 48°31' W 122°36'0 0.0
2014-Sep-08 10:29N 48°31' W 122°36'0 0.0
2014-Sep-08 09:29N 48°31' W 122°36'0 0.0
2014-Sep-08 08:29N 48°31' W 122°36'0 0.0
2014-Sep-08 07:29N 48°31' W 122°36'0 0.0
2014-Sep-08 06:29N 48°31' W 122°36'0 0.0
2014-Sep-08 05:29N 48°31' W 122°36'0 0.0
2014-Sep-08 04:29N 48°31' W 122°36'0 0.0
2014-Sep-08 03:23N 48°31' W 122°36'0 0.0
2014-Sep-08 02:29N 48°31' W 122°36'0 0.0
2014-Sep-08 01:23N 48°31' W 122°36'0 0.0
2014-Sep-08 00:29N 48°31' W 122°36'3 3.3
2014-Sep-07 23:33N 48°31' W 122°41'2 1.6
2014-Sep-07 22:34N 48°31' W 122°39'  
Track history (hours):
 
Tides and Currents Weather Stations Pressure Air Temp Water Temp Dewpoint Dewpoint Depression Visibility Wind Speed Wind Dir Waves Ship Positions

Liberty

Owner: HORIZON 82 LEASING LLC, Provo, UT. More information available from US FCC via Universal Licensing System.

Last reported at 2014-Sep-12 23:24 UTC. Time now 2014-Nov-22 17:54 UTC.
Position N 48°27' W 122°31'.
Warning: this ship's position is months out of date.

Length 25 m.

MMSI: 367110770.

Date/timePositionNaut miles runAvg speedWind from/ knotsBaromVisibWave heightAir tempDewpointWater temp
2014-Sep-12 23:24N 48°27' W 122°31'6 7.4
2014-Sep-12 22:33N 48°31' W 122°38'9 8.7
2014-Sep-12 21:33N 48°33' W 122°51'9 9.0
2014-Sep-12 20:33N 48°37' W 123°03'7 3.6
2014-Sep-12 18:33N 48°41' W 123°12'0 0.0
2014-Sep-12 14:30N 48°41' W 123°12'0 0.0
2014-Sep-12 12:09N 48°41' W 123°12'0 0.0
2014-Sep-12 11:24N 48°41' W 123°12'0 0.0
2014-Sep-12 09:30N 48°41' W 123°12'0 0.0
2014-Sep-12 07:09N 48°41' W 123°12'0 0.0
2014-Sep-12 05:12N 48°41' W 123°12'0 0.0
2014-Sep-12 01:15N 48°41' W 123°12'0 0.0
2014-Sep-12 00:09N 48°41' W 123°12'0 0.0
2014-Sep-11 22:27N 48°41' W 123°12'0 0.0
2014-Sep-11 20:12N 48°41' W 123°12'2 2.7
2014-Sep-11 19:33N 48°40' W 123°10'3 3.2
2014-Sep-11 18:32N 48°37' W 123°09'0 0.0
2014-Sep-11 17:32N 48°37' W 123°09'0 0.0
2014-Sep-11 16:32N 48°37' W 123°09'0 0.0
2014-Sep-11 15:32N 48°37' W 123°09'0 0.0
2014-Sep-11 14:32N 48°37' W 123°09'0 0.0
2014-Sep-11 13:32N 48°37' W 123°09'0 0.0
2014-Sep-11 12:05N 48°37' W 123°09'0 0.0
2014-Sep-11 11:20N 48°37' W 123°09'0 0.0
2014-Sep-11 10:14N 48°37' W 123°09'0 0.0
2014-Sep-11 09:20N 48°37' W 123°09'0 0.0
2014-Sep-11 08:29N 48°37' W 123°09'0 0.0
2014-Sep-11 07:29N 48°37' W 123°09'0 0.0
2014-Sep-11 06:26N 48°37' W 123°09'0 0.0
2014-Sep-11 05:20N 48°37' W 123°09'0 0.0
2014-Sep-11 04:21N 48°37' W 123°09'0 0.0
2014-Sep-11 03:08N 48°37' W 123°09'0 0.0
2014-Sep-11 02:26N 48°37' W 123°09'0 0.0
2014-Sep-11 01:32N 48°37' W 123°09'0 0.0
2014-Sep-11 00:32N 48°37' W 123°09'0 0.0
2014-Sep-10 23:32N 48°37' W 123°09'0 0.0
2014-Sep-10 22:26N 48°37' W 123°09'0 0.0
2014-Sep-10 20:20N 48°37' W 123°09'0 0.0
2014-Sep-10 19:29N 48°37' W 123°09'0 0.0
2014-Sep-10 18:32N 48°37' W 123°09'0 0.0
2014-Sep-10 17:32N 48°37' W 123°09'0 0.0
2014-Sep-10 16:29N 48°37' W 123°09'0 0.0
2014-Sep-10 15:32N 48°37' W 123°09'0 0.0
2014-Sep-10 14:32N 48°37' W 123°09'0 0.0
2014-Sep-10 13:32N 48°37' W 123°09'0 0.0
2014-Sep-10 12:32N 48°37' W 123°09'0 0.0
2014-Sep-10 11:32N 48°37' W 123°09'0 0.0
2014-Sep-10 10:32N 48°37' W 123°09'0 0.0
2014-Sep-10 09:32N 48°37' W 123°09'0 0.0
2014-Sep-10 08:32N 48°37' W 123°09'0 0.0
2014-Sep-10 07:32N 48°37' W 123°09'0 0.0
2014-Sep-10 06:32N 48°37' W 123°09'0 0.0
2014-Sep-10 05:32N 48°37' W 123°09'0 0.0
2014-Sep-10 04:32N 48°37' W 123°09'0 0.0
2014-Sep-10 03:32N 48°37' W 123°09'0 0.0
2014-Sep-10 02:32N 48°37' W 123°09'0 0.0
2014-Sep-10 01:32N 48°37' W 123°09'0 0.0
2014-Sep-10 00:29N 48°37' W 123°09'0 0.0
2014-Sep-09 23:32N 48°37' W 123°09'0 0.0
2014-Sep-09 22:32N 48°37' W 123°09'0 0.0
2014-Sep-09 21:32N 48°37' W 123°09'0 0.0
2014-Sep-09 20:32N 48°37' W 123°09'0 0.0
2014-Sep-09 19:29N 48°37' W 123°09'0 0.0
2014-Sep-09 18:32N 48°37' W 123°09'0 0.0
2014-Sep-09 17:32N 48°37' W 123°09'0 0.0
2014-Sep-09 16:32N 48°37' W 123°09'0 0.0
2014-Sep-09 15:32N 48°37' W 123°09'0 0.0
2014-Sep-09 14:32N 48°37' W 123°09'0 0.0
2014-Sep-09 13:32N 48°37' W 123°09'0 0.0
2014-Sep-09 12:32N 48°37' W 123°09'0 0.0
2014-Sep-09 11:32N 48°37' W 123°09'0 0.0
2014-Sep-09 10:32N 48°37' W 123°09'0 0.0
2014-Sep-09 09:32N 48°37' W 123°09'0 0.0
2014-Sep-09 08:32N 48°37' W 123°09'0 0.0
2014-Sep-09 07:32N 48°37' W 123°09'0 0.0
2014-Sep-09 06:32N 48°37' W 123°09'0 0.0
2014-Sep-09 05:32N 48°37' W 123°09'0 0.0
2014-Sep-09 04:32N 48°37' W 123°09'0 0.0
2014-Sep-09 03:32N 48°37' W 123°09'0 0.0
2014-Sep-09 02:32N 48°37' W 123°09'0 0.0
2014-Sep-09 01:32N 48°37' W 123°09'0 0.0
2014-Sep-09 00:32N 48°37' W 123°09'0 0.0
2014-Sep-08 23:32N 48°37' W 123°09'1 0.9
2014-Sep-08 22:33N 48°37' W 123°10'12 9.1
2014-Sep-08 21:14N 48°34' W 122°52'7 9.8
2014-Sep-08 20:33N 48°31' W 122°43'5 4.0
2014-Sep-08 19:23N 48°31' W 122°36'0 0.0
2014-Sep-08 18:29N 48°31' W 122°36'0 0.0
2014-Sep-08 17:29N 48°31' W 122°36'0 0.0
2014-Sep-08 16:29N 48°31' W 122°36'0 0.0
2014-Sep-08 15:17N 48°31' W 122°36'0 0.0
2014-Sep-08 14:29N 48°31' W 122°36'0 0.0
2014-Sep-08 13:17N 48°31' W 122°36'0 0.0
2014-Sep-08 12:29N 48°31' W 122°36'0 0.0
2014-Sep-08 11:29N 48°31' W 122°36'0 0.0
2014-Sep-08 10:29N 48°31' W 122°36'0 0.0
2014-Sep-08 09:29N 48°31' W 122°36'0 0.0
2014-Sep-08 08:29N 48°31' W 122°36'0 0.0
2014-Sep-08 07:29N 48°31' W 122°36'0 0.0
2014-Sep-08 06:29N 48°31' W 122°36'0 0.0
2014-Sep-08 05:29N 48°31' W 122°36'0 0.0
2014-Sep-08 04:29N 48°31' W 122°36'0 0.0
2014-Sep-08 03:23N 48°31' W 122°36'0 0.0
2014-Sep-08 02:29N 48°31' W 122°36'0 0.0
2014-Sep-08 01:23N 48°31' W 122°36'0 0.0
2014-Sep-08 00:29N 48°31' W 122°36'3 3.3
2014-Sep-07 23:33N 48°31' W 122°41'2 1.6
2014-Sep-07 22:34N 48°31' W 122°39'  

Dump ship's entire track history